»·PEaware :: N2RF KPDX-KSMN

N2RF :: KPDX-KSMN

FLIGHT INFORMATION

Flight Status: Arrived
Operator: Privately registered:
United States
More flights under this callsign
Pilot: Max W. (2591)
Aircraft: SOCATA TBM-900
(TBM9)
More flights by this aircraft type
Origin: KPDX Portland Intl
United States
Destination: KSMN Lemhi Co
United States
More flights between these airports :: More routes between these airports
Route: +LTJ LKT
File this flight plan on PilotEdge
Remarks:
Altitude:
(Current/Filed)
31,000ft
Speed:
(Current/Filed)
330kts
Departed: 21-Sep-19 11:41 AM
Arrived: 21-Sep-19 01:03 PM
Distance/Time
Traveled:
368nm/1:22
Distance/Time
To Go:
Arrived

Flight Plot

Page will automatically refresh every two minutes.

Flight plan parsing failed; only flown route is shown


Map Options




Map Legend


Flown Route
Filed Route
Departure Airport
Arrival Airport
Navaid (VOR, NDB)
Fix

Horizontal Profiles

Position Reports

Time Latitude Longitude Heading Altitude Ground
Speed
21-Sep-19 11:14 45.587153 -122.582326 209 32ft 0kts
21-Sep-19 11:15 45.587153 -122.582326 209 32ft 0kts
21-Sep-19 11:16 45.587153 -122.582326 209 32ft 0kts
21-Sep-19 11:17 45.587153 -122.582326 209 32ft 0kts
21-Sep-19 11:18 45.587153 -122.582326 209 32ft 0kts
21-Sep-19 11:19 45.587153 -122.582326 209 32ft 0kts
21-Sep-19 11:20 45.587153 -122.582326 209 32ft 0kts
21-Sep-19 11:21 45.587153 -122.582326 209 32ft 0kts
21-Sep-19 11:22 45.587153 -122.582326 209 32ft 0kts
21-Sep-19 11:23 45.587153 -122.582326 209 32ft 0kts
21-Sep-19 11:24 45.587153 -122.582326 209 32ft 0kts
21-Sep-19 11:25 45.587153 -122.582325 209 32ft 0kts
21-Sep-19 11:26 45.587153 -122.582326 209 32ft 0kts
21-Sep-19 11:27 45.587153 -122.582326 209 32ft 0kts
21-Sep-19 11:28 45.587153 -122.582326 209 32ft 0kts
21-Sep-19 11:29 45.587153 -122.582326 209 32ft 0kts
21-Sep-19 11:31 45.587153 -122.582326 209 32ft 0kts
21-Sep-19 11:32 45.587153 -122.582326 209 32ft 0kts
21-Sep-19 11:33 45.587153 -122.582326 209 32ft 0kts
21-Sep-19 11:34 45.587153 -122.582326 209 32ft 0kts
21-Sep-19 11:35 45.587153 -122.582326 209 32ft 0kts
21-Sep-19 11:36 45.587547 -122.583103 26 32ft 8kts
21-Sep-19 11:37 45.591114 -122.589371 299 32ft 25kts
21-Sep-19 11:38 45.593802 -122.596130 354 32ft 0kts
21-Sep-19 11:39 45.593857 -122.596116 13 32ft 0kts
21-Sep-19 11:40 45.593857 -122.596116 13 32ft 0kts
21-Sep-19 11:41 45.592723 -122.590281 118 32ft 94kts
21-Sep-19 11:42 45.576329 -122.546995 118 1805ft 137kts
21-Sep-19 11:43 45.557328 -122.499805 118 4114ft 139kts
21-Sep-19 11:44 45.554900 -122.447608 77 6401ft 141kts
21-Sep-19 11:45 45.561951 -122.392071 76 8619ft 147kts
21-Sep-19 11:46 45.569202 -122.333521 76 10887ft 157kts
21-Sep-19 11:47 45.576999 -122.270173 76 12947ft 166kts
21-Sep-19 11:48 45.585045 -122.204185 76 14865ft 172kts
21-Sep-19 11:48 45.591902 -122.147685 76 16318ft 176kts
21-Sep-19 11:50 45.601640 -122.066986 76 18670ft 184kts
21-Sep-19 11:51 45.610270 -121.995078 76 20722ft 190kts
21-Sep-19 11:51 45.617764 -121.932303 76 22278ft 195kts
21-Sep-19 11:53 45.628596 -121.841009 76 24245ft 203kts
21-Sep-19 11:53 45.636480 -121.774168 76 25514ft 209kts
21-Sep-19 11:54 45.646213 -121.691107 77 27172ft 214kts
21-Sep-19 11:55 45.656110 -121.606134 77 28630ft 220kts
21-Sep-19 11:56 45.666230 -121.518644 77 29948ft 225kts
21-Sep-19 11:57 45.676562 -121.428774 77 30993ft 243kts
21-Sep-19 11:58 45.688372 -121.325086 78 30996ft 295kts
21-Sep-19 11:59 45.702106 -121.203324 78 30980ft 319kts
21-Sep-19 12:00 45.711580 -121.074401 92 30982ft 332kts
21-Sep-19 12:01 45.702782 -120.942075 91 30973ft 335kts
21-Sep-19 12:02 45.693627 -120.809000 91 30971ft 335kts
21-Sep-19 12:03 45.684296 -120.676144 91 30972ft 336kts
21-Sep-19 12:04 45.674773 -120.542818 91 30955ft 336kts
21-Sep-19 12:05 45.665093 -120.409502 91 30953ft 336kts
21-Sep-19 12:06 45.655573 -120.280459 92 30950ft 336kts
21-Sep-19 12:07 45.645626 -120.147753 92 30951ft 336kts
21-Sep-19 12:08 45.635484 -120.014564 92 30953ft 336kts
21-Sep-19 12:09 45.625186 -119.881396 92 30953ft 336kts
21-Sep-19 12:10 45.614775 -119.748802 92 30954ft 336kts
21-Sep-19 12:11 45.604154 -119.615559 92 30954ft 336kts
21-Sep-19 12:12 45.593416 -119.482814 92 30954ft 336kts
21-Sep-19 12:13 45.582531 -119.350222 92 30955ft 336kts
21-Sep-19 12:14 45.571782 -119.221119 93 30956ft 336kts
21-Sep-19 12:15 45.560589 -119.088554 93 30966ft 336kts
21-Sep-19 12:16 45.549189 -118.955835 92 30972ft 336kts
21-Sep-19 12:17 45.537724 -118.823949 90 31163ft 330kts
21-Sep-19 12:18 45.526299 -118.693554 90 31165ft 332kts
21-Sep-19 12:19 45.514595 -118.562284 90 31165ft 332kts
21-Sep-19 12:20 45.502793 -118.431688 90 31182ft 332kts
21-Sep-19 12:21 45.491261 -118.305644 91 31200ft 332kts
21-Sep-19 12:22 45.479097 -118.174395 91 31201ft 333kts
21-Sep-19 12:23 45.466774 -118.043114 91 31201ft 333kts
21-Sep-19 12:24 45.454318 -117.912056 91 31201ft 333kts
21-Sep-19 12:25 45.441657 -117.780491 91 31202ft 334kts
21-Sep-19 12:26 45.428911 -117.649648 91 31202ft 334kts
21-Sep-19 12:27 45.415947 -117.518190 91 31203ft 334kts
21-Sep-19 12:28 45.402843 -117.386893 91 31204ft 334kts
21-Sep-19 12:29 45.390039 -117.260093 91 31204ft 334kts
21-Sep-19 12:30 45.376643 -117.128948 91 31206ft 334kts
21-Sep-19 12:31 45.363078 -116.997789 91 31202ft 336kts
21-Sep-19 12:32 45.349260 -116.865592 91 31200ft 339kts
21-Sep-19 12:33 45.335199 -116.732552 91 31201ft 341kts
21-Sep-19 12:34 45.320851 -116.598393 91 31202ft 341kts
21-Sep-19 12:35 45.306400 -116.464812 91 31203ft 342kts
21-Sep-19 12:36 45.292252 -116.335486 92 31202ft 342kts
21-Sep-19 12:37 45.277400 -116.201229 92 31202ft 342kts
21-Sep-19 12:38 45.262429 -116.067372 92 31203ft 342kts
21-Sep-19 12:39 45.247319 -115.933705 92 31204ft 343kts
21-Sep-19 12:40 45.231991 -115.799537 92 31204ft 343kts
21-Sep-19 12:41 45.216540 -115.665631 92 30888ft 353kts
21-Sep-19 12:42 45.199888 -115.522817 93 29466ft 376kts
21-Sep-19 12:43 45.182364 -115.374648 94 28008ft 382kts
21-Sep-19 12:44 45.165249 -115.231445 95 26568ft 380kts
21-Sep-19 12:45 45.147507 -115.084915 95 25063ft 370kts
21-Sep-19 12:46 45.130033 -114.941650 94 23434ft 369kts
21-Sep-19 12:47 45.092860 -114.802075 111 21139ft 383kts
21-Sep-19 12:48 45.050477 -114.664156 112 18958ft 370kts
21-Sep-19 12:49 45.010103 -114.533469 113 17160ft 356kts
21-Sep-19 12:50 44.971121 -114.407904 113 15354ft 340kts
21-Sep-19 12:51 44.935049 -114.292252 114 13618ft 327kts
21-Sep-19 12:52 44.902541 -114.188432 114 13082ft 291kts
21-Sep-19 12:53 44.873515 -114.093426 102 13067ft 273kts
21-Sep-19 12:54 44.909350 -114.015313 47 12437ft 211kts
21-Sep-19 12:55 44.950638 -113.980734 14 10972ft 142kts
21-Sep-19 12:56 44.984199 -113.964467 29 9175ft 126kts
21-Sep-19 12:57 45.013298 -113.938246 19 8890ft 118kts
21-Sep-19 12:58 45.040071 -113.922919 17 8695ft 90kts
21-Sep-19 12:59 45.063116 -113.909730 21 7266ft 90kts
21-Sep-19 13:00 45.085883 -113.892494 20 5579ft 101kts
21-Sep-19 13:01 45.108856 -113.884283 7 4248ft 83kts
21-Sep-19 13:02 45.120495 -113.881979 7 4034ft 2kts
21-Sep-19 13:03 45.119646 -113.882912 186 4042ft 13kts
21-Sep-19 13:04 45.116963 -113.883487 213 4044ft 13kts
21-Sep-19 13:05 45.116440 -113.885107 176 4042ft 0kts
21-Sep-19 13:06 45.116440 -113.885107 176 4042ft 0kts

Navigation Log

Ident Type
Flight plan parsing failed, navigation log unavailable